ENQB weather

Public forecast

Using degrees Celsius for public forecast. Weather courtesy of forecast.io.

Closest aviation weather report (METAR) to Troll B Platform

Closest report is Troll C Platform, 7.4 nm (13.8 km) NNE. Retrieved 2020/08/13 02:20 UTC (39 minutes ago):

ENQC 130220Z AUTO 16014KT 9999NDV BKN037/// OVC058/// 17/14 Q1016 W///S2

Closest aviation forecast (TAF) to Troll B Platform

Closest forecast is Oseberg A Platform, 26.1 nm (48.4 km) SW. Retrieved 2020-08-13 03:57 UTC (0 seconds ago):

TAF TAF ENOA 130200Z 1303/1403 16012KT 9999 FEW020 BKN040 PROB40 1303/1315 0300 FG VV002 BECMG 1306/1308 30010KT BECMG 1313/1315 35020KT PROB40 1315/1403 BKN010